Time;durP1;ratioP1;P1;durP2;ratioP2;P2;SDS_P1;SDS_P2;PMS_P1;PMS_P2;Temp;Humidity;BMP_temperature;BMP_pressure;BME280_temperature;BME280_humidity;BME280_pressure;Samples;Min_cycle;Max_cycle;Signal;HPM_P1;HPM_P2
2021/12/12 00:04:48;;;;;;;23.67;21.00;;;;;;;-2.53;89.52;100784.47;10507331;28;20048;-73
2021/12/12 00:09:55;;;;;;;30.75;21.40;;;;;;;-2.86;89.78;100792.81;10507715;28;20053;-72
2021/12/12 00:14:57;;;;;;;26.30;20.70;;;;;;;-2.89;90.62;100790.13;10505758;28;20059;-72
2021/12/12 00:19:59;;;;;;;23.00;19.80;;;;;;;-2.94;90.60;100790.78;10505506;28;20044;-73
2021/12/12 00:25:00;;;;;;;23.38;20.90;;;;;;;-3.07;90.52;100792.06;10506764;28;20441;-73
2021/12/12 00:30:06;;;;;;;25.45;17.60;;;;;;;-2.75;89.37;100780.28;10506755;28;20089;-72
2021/12/12 00:35:12;;;;;;;21.30;18.77;;;;;;;-2.95;88.80;100786.47;10506573;28;20052;-72
2021/12/12 00:40:19;;;;;;;114.43;60.70;;;;;;;-3.07;89.56;100774.91;10507864;28;20041;-72
2021/12/12 00:45:22;;;;;;;92.85;47.35;;;;;;;-2.87;88.92;100780.78;10506779;28;20048;-73
2021/12/12 00:50:32;;;;;;;69.22;37.53;;;;;;;-3.20;89.05;100784.72;10507057;28;20375;-73
2021/12/12 00:55:37;;;;;;;56.47;30.75;;;;;;;-3.20;89.39;100780.47;10507428;28;20439;-73
2021/12/12 01:00:50;;;;;;;50.45;30.60;;;;;;;-3.17;90.17;100793.44;10506837;28;20044;-73
2021/12/12 01:05:53;;;;;;;30.17;23.58;;;;;;;-3.34;90.22;100779.97;10503784;28;20508;-73
2021/12/12 01:11:27;;;;;;;29.48;21.83;;;;;;;-2.99;89.17;100787.19;10504783;28;20052;-73
2021/12/12 01:16:36;;;;;;;25.25;19.90;;;;;;;-3.42;88.83;100794.22;10506118;28;20059;-72
2021/12/12 01:21:43;;;;;;;30.80;22.60;;;;;;;-3.49;90.41;100809.41;10505368;28;20494;-73
2021/12/12 01:26:47;;;;;;;45.13;27.48;;;;;;;-3.23;91.14;100812.88;10505210;28;20094;-72
2021/12/12 01:31:49;;;;;;;43.95;27.70;;;;;;;-3.30;91.34;100828.09;10505280;28;20544;-73
2021/12/12 01:42:06;;;;;;;26.88;20.98;;;;;;;-3.05;90.76;100837.59;10503170;28;20108;-74
2021/12/12 01:47:13;;;;;;;23.63;18.53;;;;;;;-3.02;88.78;100844.53;10503287;28;20490;-70
2021/12/12 01:52:19;;;;;;;38.80;24.90;;;;;;;-3.03;89.28;100859.91;10499975;28;20036;-71
2021/12/12 01:57:26;;;;;;;37.13;24.05;;;;;;;-3.00;89.90;100860.91;10500563;28;20048;-71
2021/12/12 02:02:32;;;;;;;35.70;25.63;;;;;;;-3.20;90.38;100852.47;10499101;28;20045;-71
2021/12/12 02:07:37;;;;;;;44.50;26.10;;;;;;;-3.10;90.20;100846.84;10498979;28;20382;-69
2021/12/12 02:12:39;;;;;;;41.15;26.13;;;;;;;-3.34;90.18;100853.66;10498603;28;20070;-70
2021/12/12 02:17:45;;;;;;;44.13;24.70;;;;;;;-3.57;90.78;100851.09;10498641;28;20113;-70
2021/12/12 02:38:37;;;;;;;38.63;24.73;;;;;;;-3.51;90.12;100839.28;10498811;28;20044;-70
2021/12/12 02:43:48;;;;;;;40.83;25.10;;;;;;;-3.55;90.06;100833.16;10504752;28;20044;-72
2021/12/12 02:48:52;;;;;;;38.03;26.05;;;;;;;-3.77;90.39;100833.16;10505001;28;20532;-71
2021/12/12 02:53:57;;;;;;;34.95;24.45;;;;;;;-3.66;90.72;100827.63;10505499;28;20045;-70
2021/12/12 02:59:04;;;;;;;37.72;25.55;;;;;;;-3.92;90.54;100828.31;10505577;28;20070;-71
2021/12/12 03:04:06;;;;;;;36.03;25.98;;;;;;;-3.99;91.00;100831.44;10505589;28;20091;-70
2021/12/12 03:09:31;;;;;;;33.83;24.45;;;;;;;-3.72;91.41;100836.75;10505070;28;20045;-71
2021/12/12 03:14:35;;;;;;;44.95;25.20;;;;;;;-3.86;90.44;100854.22;10504418;28;20414;-71
2021/12/12 03:19:38;;;;;;;41.72;26.40;;;;;;;-4.00;90.30;100861.38;10504723;28;20045;-70
2021/12/12 03:24:40;;;;;;;37.60;24.90;;;;;;;-3.74;89.74;100852.13;10503312;28;20052;-71
2021/12/12 03:29:44;;;;;;;33.50;24.23;;;;;;;-3.68;89.58;100860.06;10504817;28;20041;-70
2021/12/12 03:34:54;;;;;;;32.35;24.20;;;;;;;-3.89;89.37;100861.81;10504553;28;20040;-71
2021/12/12 03:40:01;;;;;;;36.00;24.83;;;;;;;-4.15;90.45;100866.78;10503680;28;20044;-72
2021/12/12 03:45:04;;;;;;;37.67;22.57;;;;;;;-4.23;91.57;100875.84;10504060;28;20044;-70
2021/12/12 03:50:11;;;;;;;32.05;22.63;;;;;;;-3.93;90.63;100875.34;10504622;28;20049;-70
2021/12/12 03:55:14;;;;;;;26.17;21.75;;;;;;;-4.14;89.83;100886.50;10503722;28;20037;-71
2021/12/12 04:00:25;;;;;;;29.05;22.90;;;;;;;-4.24;90.72;100889.50;10503755;28;20486;-70
2021/12/12 04:05:27;;;;;;;30.08;21.75;;;;;;;-4.01;89.67;100880.19;10502918;28;20044;-71
2021/12/12 04:10:29;;;;;;;38.33;24.35;;;;;;;-4.18;89.17;100884.63;10502807;28;20391;-69
2021/12/12 04:15:31;;;;;;;34.42;21.33;;;;;;;-4.39;90.03;100897.44;10501259;28;20036;-70
2021/12/12 04:20:37;;;;;;;28.60;21.70;;;;;;;-4.45;90.68;100906.56;10500879;28;20045;-70
2021/12/12 04:25:39;;;;;;;27.83;23.00;;;;;;;-4.23;90.89;100898.97;10502082;28;20105;-71
2021/12/12 04:30:41;;;;;;;41.42;25.05;;;;;;;-4.12;89.12;100891.69;10501622;28;20049;-70
2021/12/12 04:35:42;;;;;;;37.85;23.80;;;;;;;-4.08;89.06;100901.28;10500039;28;20044;-71
2021/12/12 04:40:44;;;;;;;35.17;24.05;;;;;;;-4.01;89.34;100898.16;10499924;28;20058;-71
2021/12/12 04:45:57;;;;;;;32.95;21.88;;;;;;;-4.18;89.89;100883.75;10500644;28;20107;-71
2021/12/12 04:51:10;;;;;;;37.40;23.92;;;;;;;-4.18;90.45;100887.19;10501398;28;20048;-72
2021/12/12 04:56:28;;;;;;;39.53;24.70;;;;;;;-4.20;91.63;100893.97;10500134;28;20044;-71
2021/12/12 05:01:39;;;;;;;35.10;23.02;;;;;;;-4.11;92.00;100899.47;10500444;28;20044;-70
2021/12/12 05:06:45;;;;;;;38.47;24.05;;;;;;;-4.00;90.35;100919.56;10500049;28;20446;-72
2021/12/12 05:12:13;;;;;;;36.55;23.65;;;;;;;-3.87;90.74;100921.81;10499166;28;20048;-71
2021/12/12 05:17:37;;;;;;;35.28;23.02;;;;;;;-3.63;90.48;100920.25;10498994;28;20041;-71
2021/12/12 05:22:47;;;;;;;39.42;24.25;;;;;;;-3.57;90.16;100922.16;10498618;28;20048;-71
2021/12/12 05:27:52;;;;;;;32.53;23.15;;;;;;;-3.50;90.64;100929.28;10499856;28;20064;-71
2021/12/12 05:32:55;;;;;;;36.45;24.08;;;;;;;-3.58;90.47;100926.44;10500037;28;20445;-71
2021/12/12 05:37:58;;;;;;;42.88;25.45;;;;;;;-3.64;91.08;100936.47;10499651;28;20185;-71
2021/12/12 05:43:02;;;;;;;40.78;25.40;;;;;;;-3.66;92.27;100935.53;10499199;28;20041;-71
2021/12/12 05:48:05;;;;;;;38.38;24.63;;;;;;;-3.72;92.47;100945.53;10499817;28;20052;-71
2021/12/12 05:53:08;;;;;;;44.63;27.13;;;;;;;-3.67;92.66;100926.09;10500036;28;20076;-71
2021/12/12 05:58:14;;;;;;;38.58;25.15;;;;;;;-3.61;92.72;100939.16;10499043;28;20048;-71
2021/12/12 06:03:19;;;;;;;32.80;22.63;;;;;;;-3.42;91.26;100938.19;10498462;28;20036;-70
2021/12/12 06:08:23;;;;;;;29.83;22.42;;;;;;;-3.43;90.56;100931.28;10498440;28;20064;-71
2021/12/12 06:13:25;;;;;;;30.27;22.55;;;;;;;-3.45;90.00;100932.94;10499041;28;20041;-70
2021/12/12 06:18:30;;;;;;;25.40;21.35;;;;;;;-3.79;90.87;100941.00;10502968;28;20414;-70
2021/12/12 06:23:32;;;;;;;26.33;22.92;;;;;;;-3.89;91.71;100944.88;10506696;28;20063;-71
2021/12/12 06:28:38;;;;;;;35.55;24.33;;;;;;;-3.64;91.49;100944.16;10506801;28;20056;-71
2021/12/12 06:33:41;;;;;;;33.85;24.38;;;;;;;-3.67;91.85;100951.78;10506518;28;20529;-71
2021/12/12 06:38:47;;;;;;;38.40;23.55;;;;;;;-3.61;91.28;100961.41;10505850;28;20044;-71
2021/12/12 06:43:49;;;;;;;30.15;21.35;;;;;;;-3.66;90.75;100975.78;10505343;28;20032;-71
2021/12/12 06:48:52;;;;;;;33.85;22.58;;;;;;;-3.78;90.94;100980.41;10506151;28;20490;-72
2021/12/12 06:53:54;;;;;;;36.90;22.73;;;;;;;-3.79;91.23;100983.78;10505507;28;20045;-71
2021/12/12 06:58:57;;;;;;;31.08;22.83;;;;;;;-3.74;91.34;100978.03;10503444;28;20052;-71
2021/12/12 07:04:05;;;;;;;33.03;22.27;;;;;;;-3.65;91.32;100980.97;10504659;28;20075;-71
2021/12/12 07:09:09;;;;;;;29.95;22.15;;;;;;;-3.75;90.95;100976.28;10504673;28;20067;-70
2021/12/12 07:14:14;;;;;;;24.58;21.85;;;;;;;-3.83;91.40;100981.09;10504104;28;20040;-71
2021/12/12 07:19:17;;;;;;;33.22;22.02;;;;;;;-3.86;91.66;100982.66;10503715;28;20040;-71
2021/12/12 07:24:20;;;;;;;22.30;19.30;;;;;;;-3.47;90.41;100992.81;10504149;28;20045;-71
2021/12/12 07:29:22;;;;;;;26.98;19.23;;;;;;;-3.73;90.03;100987.47;10502102;28;20110;-70
2021/12/12 07:34:27;;;;;;;25.05;19.65;;;;;;;-3.85;90.52;101002.38;10502511;28;20040;-72
2021/12/12 07:39:30;;;;;;;25.83;18.75;;;;;;;-3.84;90.78;100993.88;10503603;28;20452;-71
2021/12/12 07:44:35;;;;;;;21.05;18.45;;;;;;;-3.66;91.72;101004.03;10503721;28;20045;-70
2021/12/12 07:49:43;;;;;;;22.92;19.75;;;;;;;-3.73;91.05;100991.75;10503653;28;20078;-71
2021/12/12 07:54:48;;;;;;;26.83;19.45;;;;;;;-3.72;91.53;100999.50;10503250;28;20047;-71
2021/12/12 07:59:51;;;;;;;23.10;19.77;;;;;;;-3.61;92.06;100999.97;10502858;28;20052;-72
2021/12/12 08:04:54;;;;;;;24.27;20.05;;;;;;;-3.50;91.98;100995.25;10502532;28;20138;-71
2021/12/12 08:09:56;;;;;;;22.58;20.00;;;;;;;-3.39;91.75;101006.84;10502522;28;20045;-71
2021/12/12 08:15:01;;;;;;;22.60;18.52;;;;;;;-3.24;91.79;101020.28;10500941;28;20039;-72
2021/12/12 08:20:05;;;;;;;19.98;18.08;;;;;;;-3.02;91.37;101009.16;10502509;28;20098;-72
2021/12/12 08:25:11;;;;;;;20.48;17.42;;;;;;;-2.86;91.69;101002.91;10501302;28;20044;-72
2021/12/12 08:30:16;;;;;;;18.45;16.75;;;;;;;-2.76;90.94;100994.69;10501371;28;20355;-71
2021/12/12 08:35:21;;;;;;;18.15;16.40;;;;;;;-2.71;91.25;100992.28;10501086;28;20048;-73
2021/12/12 08:40:26;;;;;;;19.50;17.60;;;;;;;-2.70;91.11;101000.09;10500425;28;20090;-72
2021/12/12 08:45:31;;;;;;;22.58;18.23;;;;;;;-2.58;90.64;100994.50;10500353;28;20044;-72
2021/12/12 08:50:35;;;;;;;19.20;17.17;;;;;;;-2.45;90.36;100990.69;10501026;28;20044;-72
2021/12/12 08:55:43;;;;;;;18.25;16.42;;;;;;;-2.42;90.44;100985.66;10502835;28;20436;-72
2021/12/12 09:00:50;;;;;;;19.80;17.10;;;;;;;-2.13;88.88;100984.09;10501756;28;20044;-73
2021/12/12 09:05:52;;;;;;;20.63;18.52;;;;;;;-2.06;88.33;100971.47;10501728;28;20465;-73
2021/12/12 09:11:15;;;;;;;21.45;19.08;;;;;;;-1.87;87.80;100984.97;10499539;28;20556;-72
2021/12/12 09:16:22;;;;;;;;;;;;;;;-1.89;87.58;100978.91;10501669;28;20045;-71
2021/12/12 09:21:26;;;;;;;;;;;;;;;-1.80;87.39;100979.22;10500309;28;19920;-70
2021/12/12 09:26:31;;;;;;;21.55;18.45;;;;;;;-1.85;87.55;100975.63;10499311;28;19921;-71
2021/12/12 09:31:42;;;;;;;24.85;20.67;;;;;;;-1.69;87.70;100976.97;10497933;28;20048;-71
2021/12/12 09:37:10;;;;;;;21.15;18.90;;;;;;;-1.66;87.62;100970.22;10484952;28;20044;-72
2021/12/12 09:42:35;;;;;;;25.25;19.77;;;;;;;-1.33;86.89;100972.13;10462628;28;20499;-72
2021/12/12 09:54:03;;;;;;;22.13;19.33;;;;;;;-0.94;86.57;100946.66;10474530;28;20498;-72
2021/12/12 09:59:46;;;;;;;30.90;21.73;;;;;;;-0.85;86.09;100934.00;10484519;28;20037;-73
2021/12/12 10:05:25;;;;;;;23.95;20.48;;;;;;;-0.36;85.09;100916.41;10498069;28;20029;-73
2021/12/12 10:10:40;;;;;;;23.63;20.40;;;;;;;-0.14;84.02;100918.72;10474885;28;20102;-73
2021/12/12 10:15:47;;;;;;;23.33;19.75;;;;;;;0.13;82.62;100899.56;10481332;28;20044;-73
2021/12/12 10:21:01;;;;;;;21.60;18.90;;;;;;;0.27;81.77;100890.44;10497816;28;20079;-73
2021/12/12 10:26:08;;;;;;;22.15;19.98;;;;;;;0.31;82.53;100874.16;10497808;28;20048;-73
2021/12/12 10:31:25;;;;;;;19.58;17.77;;;;;;;0.33;82.82;100859.53;10499868;28;20052;-74
2021/12/12 10:36:33;;;;;;;19.90;17.90;;;;;;;0.44;82.95;100864.94;10498576;28;20044;-74
2021/12/12 10:41:46;;;;;;;21.67;19.35;;;;;;;0.36;83.21;100862.22;10498461;28;20098;-74
2021/12/12 10:46:51;;;;;;;19.40;17.70;;;;;;;0.56;82.32;100864.34;10456450;28;20141;-73
2021/12/12 10:52:03;;;;;;;18.90;17.30;;;;;;;0.88;82.10;100865.03;10456270;28;20041;-74
2021/12/12 10:57:14;;;;;;;19.60;17.70;;;;;;;0.98;81.23;100869.59;10455883;28;20044;-74
2021/12/12 11:02:19;;;;;;;20.73;18.70;;;;;;;0.77;82.62;100863.97;10458589;28;20045;-75
2021/12/12 11:07:32;;;;;;;18.55;16.98;;;;;;;1.15;81.35;100865.63;10492487;28;20398;-74
2021/12/12 11:12:45;;;;;;;21.70;18.23;;;;;;;1.49;80.92;100861.94;10506740;28;20102;-74
2021/12/12 11:18:01;;;;;;;10.52;8.85;;;;;;;2.61;75.83;100852.47;10505006;28;20059;-74
2021/12/12 11:23:08;;;;;;;8.40;7.60;;;;;;;3.15;72.67;100854.03;10505876;28;20036;-74
2021/12/12 11:28:19;;;;;;;7.13;6.43;;;;;;;3.27;71.93;100875.81;10504886;28;20052;-75
2021/12/12 11:33:22;;;;;;;6.63;6.03;;;;;;;3.39;71.15;100875.06;10505036;28;20044;-74
2021/12/12 11:38:43;;;;;;;6.90;6.30;;;;;;;3.40;70.57;100874.22;10506215;28;20444;-76
2021/12/12 11:44:01;;;;;;;8.48;7.40;;;;;;;3.43;72.01;100874.25;10487894;28;20079;-75
2021/12/12 11:49:40;;;;;;;14.60;13.40;;;;;;;3.21;73.09;100872.28;10461211;28;20049;-75
2021/12/12 11:54:52;;;;;;;18.50;16.92;;;;;;;2.74;75.32;100875.13;10463908;28;20086;-75
2021/12/12 12:00:15;;;;;;;21.05;19.25;;;;;;;2.51;76.45;100861.84;10464040;28;20095;-75
2021/12/12 12:05:36;;;;;;;22.92;20.83;;;;;;;2.76;75.48;100855.28;10463101;28;20507;-75
2021/12/12 12:10:56;;;;;;;19.33;17.73;;;;;;;2.74;76.44;100855.25;10462308;28;20041;-75
2021/12/12 12:16:03;;;;;;;19.25;17.55;;;;;;;2.81;77.12;100839.75;10461833;28;20067;-74
2021/12/12 12:21:28;;;;;;;14.88;13.68;;;;;;;2.96;76.17;100853.78;10463035;28;20045;-75
2021/12/12 12:26:52;;;;;;;16.58;14.98;;;;;;;3.02;76.40;100840.91;10462306;28;20537;-74
2021/12/12 12:32:31;;;;;;;17.23;15.52;;;;;;;2.83;76.38;100849.28;10462192;28;20123;-75
2021/12/12 12:38:10;;;;;;;17.10;15.45;;;;;;;2.61;76.12;100847.28;10461039;28;20051;-75
2021/12/12 12:43:49;;;;;;;16.90;15.27;;;;;;;2.73;76.16;100850.03;10474428;28;20032;-74
2021/12/12 12:49:28;;;;;;;19.50;16.48;;;;;;;2.90;74.34;100832.94;10503763;28;20528;-75
2021/12/12 12:54:37;;;;;;;16.85;15.35;;;;;;;2.87;75.73;100821.66;10503540;28;20103;-74
2021/12/12 12:59:51;;;;;;;15.18;13.77;;;;;;;3.02;75.08;100819.25;10502614;28;20453;-75
2021/12/12 13:05:29;;;;;;;16.15;14.75;;;;;;;2.59;78.00;100810.06;10494577;28;20045;-75
2021/12/12 13:10:34;;;;;;;15.60;14.27;;;;;;;2.73;76.47;100798.97;10460151;28;20049;-74
2021/12/12 13:15:59;;;;;;;16.33;14.93;;;;;;;2.79;76.75;100795.63;10460200;28;20392;-75
2021/12/12 13:21:25;;;;;;;16.48;15.13;;;;;;;2.71;77.33;100800.69;10459944;28;20056;-74
2021/12/12 13:26:35;;;;;;;10.15;9.02;;;;;;;3.01;76.21;100797.59;10457370;28;20361;-73
2021/12/12 13:31:41;;;;;;;5.32;4.85;;;;;;;3.39;72.84;100791.03;10459106;28;20048;-73
2021/12/12 13:36:57;;;;;;;5.80;5.18;;;;;;;3.53;72.71;100777.31;10459610;28;20405;-73
2021/12/12 13:42:22;;;;;;;6.78;4.90;;;;;;;3.64;72.07;100771.34;10461465;28;20151;-73
2021/12/12 13:47:33;;;;;;;5.47;3.35;;;;;;;3.83;70.95;100777.56;10499329;28;20040;-74
2021/12/12 13:52:50;;;;;;;5.05;3.65;;;;;;;3.92;70.25;100775.03;10498793;28;20079;-74
2021/12/12 13:58:07;;;;;;;3.47;3.17;;;;;;;3.90;69.98;100772.41;10501247;28;20055;-74
2021/12/12 14:03:43;;;;;;;8.10;6.53;;;;;;;3.90;70.40;100774.16;10500673;28;20077;-74
2021/12/12 14:08:49;;;;;;;5.65;5.07;;;;;;;3.64;71.05;100794.75;10461326;28;20069;-73
2021/12/12 14:13:53;;;;;;;12.57;11.38;;;;;;;3.41;72.71;100802.31;10458965;28;20083;-74
2021/12/12 14:19:31;;;;;;;14.18;12.88;;;;;;;3.23;73.73;100782.22;10457399;28;20159;-74
2021/12/12 14:24:35;;;;;;;15.15;13.85;;;;;;;3.03;74.35;100782.88;10433575;28;20053;-75
2021/12/12 14:29:38;;;;;;;14.95;13.63;;;;;;;2.92;75.22;100783.63;10457339;28;20053;-75
2021/12/12 14:35:01;;;;;;;16.80;15.10;;;;;;;2.75;76.56;100773.94;10457969;28;20144;-73
2021/12/12 14:40:18;;;;;;;9.35;8.45;;;;;;;2.90;76.02;100760.25;10467416;28;20045;-75
2021/12/12 14:45:22;;;;;;;;;;;;;;;3.11;74.26;100740.56;10476285;28;20132;-74
2021/12/12 14:50:29;;;;;;;5.47;3.85;;;;;;;3.19;73.40;100757.09;10459382;28;19920;-75
2021/12/12 14:55:51;;;;;;;4.10;3.67;;;;;;;3.02;73.95;100773.38;10476874;28;20045;-75
2021/12/12 15:00:59;;;;;;;5.78;3.10;;;;;;;2.98;74.17;100778.50;10474051;28;20045;-74
2021/12/12 15:06:04;;;;;;;5.78;4.05;;;;;;;2.96;74.54;100791.47;10476147;28;20048;-74
2021/12/12 15:11:12;;;;;;;14.98;13.57;;;;;;;2.83;76.15;100781.78;10474795;28;20410;-74
2021/12/12 15:16:25;;;;;;;15.85;14.35;;;;;;;2.80;76.11;100768.78;10473979;28;20064;-73
2021/12/12 15:21:29;;;;;;;16.85;14.93;;;;;;;2.55;77.85;100771.94;10472704;28;20041;-74
2021/12/12 15:26:41;;;;;;;15.68;14.18;;;;;;;2.51;78.29;100771.88;10456947;28;20376;-74
2021/12/12 15:31:49;;;;;;;16.35;14.75;;;;;;;2.46;78.99;100772.69;10467083;28;20133;-73
2021/12/12 15:36:58;;;;;;;17.20;15.10;;;;;;;2.81;77.78;100777.44;10466077;28;20049;-74
2021/12/12 15:42:07;;;;;;;17.73;16.02;;;;;;;2.48;79.54;100766.69;10468093;28;20094;-73
2021/12/12 15:47:14;;;;;;;18.73;16.92;;;;;;;2.72;78.42;100770.41;10505689;28;20045;-73
2021/12/12 15:52:36;;;;;;;18.88;16.95;;;;;;;2.54;79.78;100768.47;10505155;28;20516;-73
2021/12/12 15:57:41;;;;;;;18.63;16.83;;;;;;;2.28;81.80;100761.22;10505994;28;20056;-73
2021/12/12 16:02:43;;;;;;;18.52;16.73;;;;;;;2.36;82.24;100756.13;10505771;28;20049;-73
2021/12/12 16:07:50;;;;;;;17.35;15.75;;;;;;;2.43;83.72;100741.50;10475364;28;20406;-74
2021/12/12 16:12:54;;;;;;;10.90;9.43;;;;;;;2.49;84.64;100739.00;10463827;28;20495;-73
2021/12/12 16:17:56;;;;;;;5.05;3.28;;;;;;;2.80;86.79;100740.22;10467070;28;20498;-72
2021/12/12 16:23:01;;;;;;;7.85;2.90;;;;;;;3.06;87.10;100734.44;10501388;28;20075;-73
2021/12/12 16:28:08;;;;;;;8.45;3.13;;;;;;;2.96;87.66;100733.47;10471377;28;20059;-72
2021/12/12 16:33:15;;;;;;;;;;;;;;;3.15;87.23;100740.59;10466470;28;20041;-71
2021/12/12 16:38:23;;;;;;;5.10;2.47;;;;;;;3.26;86.98;100759.75;10461896;28;19944;-72
2021/12/12 16:43:26;;;;;;;5.28;2.60;;;;;;;3.15;87.71;100756.19;10495185;28;20074;-74
2021/12/12 16:48:44;;;;;;;7.63;6.85;;;;;;;3.10;86.58;100755.28;10501752;28;20094;-73
2021/12/12 16:53:50;;;;;;;10.70;8.68;;;;;;;3.08;85.16;100751.78;10501154;28;20170;-73
2021/12/12 16:58:55;;;;;;;15.93;14.43;;;;;;;2.81;86.22;100760.13;10479188;28;20499;-73
2021/12/12 17:04:07;;;;;;;14.25;10.25;;;;;;;3.01;85.67;100748.25;10456300;28;20041;-72
2021/12/12 17:09:19;;;;;;;12.05;9.70;;;;;;;2.69;86.33;100744.41;10487422;28;20044;-73
2021/12/12 17:14:24;;;;;;;12.50;11.20;;;;;;;2.63;87.43;100741.75;10474014;28;20048;-72
2021/12/12 17:19:30;;;;;;;12.23;11.07;;;;;;;2.82;85.96;100743.69;10492314;28;20051;-73
2021/12/12 17:24:38;;;;;;;14.63;11.48;;;;;;;2.99;85.36;100730.91;10480189;28;20036;-73
2021/12/12 17:29:45;;;;;;;12.75;11.55;;;;;;;2.64;86.89;100733.09;10499259;28;20059;-73
2021/12/12 17:34:53;;;;;;;12.18;10.98;;;;;;;2.73;87.33;100747.06;10500189;28;20036;-74
2021/12/12 17:40:09;;;;;;;11.57;9.77;;;;;;;2.66;87.96;100752.19;10491170;28;20036;-73
2021/12/12 17:45:29;;;;;;;11.07;9.98;;;;;;;2.72;88.05;100750.53;10490638;28;20040;-73
2021/12/12 17:51:04;;;;;;;11.85;10.52;;;;;;;2.60;88.94;100754.69;10498155;28;20048;-73
2021/12/12 17:56:37;;;;;;;12.63;11.27;;;;;;;2.79;87.96;100767.06;10465856;28;20059;-74
2021/12/12 18:01:48;;;;;;;13.52;12.30;;;;;;;2.78;88.37;100765.28;10446409;28;20487;-73
2021/12/12 18:06:57;;;;;;;13.23;12.02;;;;;;;2.59;89.55;100761.59;10499174;28;20079;-73
2021/12/12 18:12:08;;;;;;;14.07;12.68;;;;;;;3.00;88.88;100766.41;10505369;28;20044;-73
2021/12/12 18:17:25;;;;;;;14.63;11.45;;;;;;;3.05;89.50;100772.50;10494240;28;20090;-74
2021/12/12 18:22:31;;;;;;;14.15;11.68;;;;;;;2.70;91.69;100765.22;10510867;28;20474;-73
2021/12/12 18:27:39;;;;;;;13.00;11.43;;;;;;;2.76;91.20;100769.59;10511207;28;20082;-74
2021/12/12 18:32:44;;;;;;;11.70;10.65;;;;;;;2.61;91.80;100783.28;10512461;28;20048;-74
2021/12/12 18:37:55;;;;;;;14.43;13.02;;;;;;;3.08;90.15;100779.47;10514099;28;20040;-73
2021/12/12 18:42:59;;;;;;;16.50;14.95;;;;;;;2.93;90.24;100783.66;10512027;28;20052;-73
2021/12/12 18:48:05;;;;;;;16.88;15.27;;;;;;;2.74;91.79;100779.09;10511059;28;20076;-73
2021/12/12 18:53:12;;;;;;;16.95;15.43;;;;;;;2.80;92.74;100783.50;10511258;28;20041;-73
2021/12/12 18:58:16;;;;;;;;;;;;;;;2.66;95.61;100767.75;10510914;28;20148;-73
2021/12/12 19:03:25;;;;;;;18.45;15.70;;;;;;;2.74;96.17;100781.69;10511294;28;19927;-74
2021/12/12 19:08:34;;;;;;;15.85;14.23;;;;;;;2.93;95.24;100785.38;10511545;28;20044;-73
2021/12/12 19:13:40;;;;;;;15.85;14.40;;;;;;;2.68;96.04;100784.22;10492757;28;20064;-74
2021/12/12 19:18:45;;;;;;;17.03;14.70;;;;;;;2.63;97.26;100778.09;10513931;28;20047;-74
2021/12/12 19:23:53;;;;;;;26.33;17.25;;;;;;;2.55;98.87;100774.53;10504417;28;20120;-73
2021/12/12 19:28:55;;;;;;;14.45;13.05;;;;;;;2.87;100.00;100778.38;10466716;28;20029;-74
2021/12/12 19:34:02;;;;;;;14.05;12.75;;;;;;;2.75;99.94;100781.72;10499833;28;20058;-74
2021/12/12 19:39:24;;;;;;;16.55;14.27;;;;;;;2.66;100.00;100786.81;10500881;28;20037;-74
2021/12/12 19:44:32;;;;;;;16.08;14.68;;;;;;;2.74;99.92;100786.88;10462925;28;20040;-74
2021/12/12 19:49:36;;;;;;;17.83;16.00;;;;;;;2.86;99.99;100786.16;10496241;28;20036;-74
2021/12/12 19:54:38;;;;;;;18.85;17.05;;;;;;;2.43;100.00;100791.66;10486524;28;20049;-74
2021/12/12 19:59:44;;;;;;;17.25;15.70;;;;;;;2.50;100.00;100790.91;10504947;28;20410;-74
2021/12/12 20:04:57;;;;;;;17.20;15.57;;;;;;;2.49;100.00;100798.69;10486984;28;20044;-75
2021/12/12 20:10:13;;;;;;;18.73;16.77;;;;;;;2.45;100.00;100802.09;10505265;28;20063;-75
2021/12/12 20:15:19;;;;;;;19.05;17.17;;;;;;;2.57;100.00;100797.06;10502276;28;20036;-74
2021/12/12 20:20:26;;;;;;;20.23;18.15;;;;;;;2.48;100.00;100797.81;10502033;28;20502;-75
2021/12/12 20:25:37;;;;;;;;;;;;;;;2.74;100.00;100805.03;10503897;28;20037;-74
2021/12/12 20:30:51;;;;;;;26.48;22.30;;;;;;;2.56;100.00;100794.44;10501265;28;19921;-75
2021/12/12 20:36:04;;;;;;;46.33;27.10;;;;;;;2.82;100.00;100802.56;10459837;28;20037;-75
2021/12/12 20:41:14;;;;;;;25.35;22.98;;;;;;;2.80;100.00;100791.28;10462251;28;20045;-75
2021/12/12 20:46:20;;;;;;;23.83;21.52;;;;;;;2.65;99.90;100794.53;10461551;28;20045;-74
2021/12/12 20:51:37;;;;;;;34.28;23.20;;;;;;;2.79;100.00;100800.81;10489769;28;20129;-75
2021/12/12 20:56:43;;;;;;;;;;;;;;;2.31;100.00;100791.53;10484790;28;20040;-76
2021/12/12 21:01:49;;;;;;;35.90;27.25;;;;;;;2.29;100.00;100798.41;10502116;28;19920;-76
2021/12/12 21:06:57;;;;;;;29.85;26.20;;;;;;;2.22;100.00;100805.25;10501335;28;20110;-75
2021/12/12 21:12:09;;;;;;;;;;;;;;;2.42;100.00;100804.63;10502408;28;20048;-74
2021/12/12 21:17:26;;;;;;;35.25;27.58;;;;;;;2.24;100.00;100805.25;10525200;28;19927;-75
2021/12/12 21:22:48;;;;;;;40.03;25.77;;;;;;;2.40;100.00;100812.41;10543257;28;20044;-75
2021/12/12 21:28:01;;;;;;;35.92;26.73;;;;;;;2.22;100.00;100812.16;10542129;28;20051;-75
2021/12/12 21:33:03;;;;;;;39.72;28.40;;;;;;;2.10;100.00;100809.38;10542724;28;20551;-75
2021/12/12 21:38:07;;;;;;;47.78;31.65;;;;;;;2.03;100.00;100822.22;10508165;28;20040;-75
2021/12/12 21:43:18;;;;;;;34.95;27.70;;;;;;;2.07;100.00;100823.16;10542018;28;20105;-74
2021/12/12 21:48:24;;;;;;;47.15;30.20;;;;;;;2.15;100.00;100824.16;10543268;28;20516;-75
2021/12/12 21:53:31;;;;;;;53.17;32.97;;;;;;;1.99;100.00;100820.47;10541593;28;20093;-75
2021/12/12 21:58:43;;;;;;;53.58;31.35;;;;;;;2.06;100.00;100810.16;10542944;28;20044;-74
2021/12/12 22:03:53;;;;;;;50.00;29.77;;;;;;;2.10;100.00;100814.56;10541996;28;20448;-75
2021/12/12 22:08:57;;;;;;;55.22;35.53;;;;;;;1.97;100.00;100814.38;10541796;28;20066;-74
2021/12/12 22:14:33;;;;;;;51.20;32.42;;;;;;;2.12;100.00;100824.09;10542334;28;20055;-75
2021/12/12 22:19:41;;;;;;;40.35;29.83;;;;;;;2.20;100.00;100829.41;10524499;28;20036;-75
2021/12/12 22:24:57;;;;;;;50.10;30.85;;;;;;;2.07;100.00;100817.97;10541027;28;20040;-75
2021/12/12 22:30:00;;;;;;;45.20;28.27;;;;;;;2.41;100.00;100818.47;10523014;28;20048;-75
2021/12/12 22:35:24;;;;;;;40.90;27.52;;;;;;;2.19;100.00;100815.56;10522436;28;20109;-75
2021/12/12 22:40:31;;;;;;;40.05;28.65;;;;;;;2.08;100.00;100822.31;10541008;28;20044;-74
2021/12/12 22:45:37;;;;;;;38.87;28.60;;;;;;;2.40;100.00;100817.59;10540140;28;20040;-74
2021/12/12 22:50:45;;;;;;;33.33;26.33;;;;;;;2.35;100.00;100823.59;10540346;28;20093;-75
2021/12/12 22:55:52;;;;;;;40.65;28.50;;;;;;;2.33;100.00;100818.34;10532676;28;20039;-74
2021/12/12 23:01:18;;;;;;;36.80;26.70;;;;;;;2.36;100.00;100818.41;10546387;28;20044;-75
2021/12/12 23:06:24;;;;;;;22.80;20.77;;;;;;;2.94;100.00;100829.53;10548898;28;20039;-74
2021/12/12 23:11:28;;;;;;;19.92;17.90;;;;;;;2.74;100.00;100831.00;10547479;28;20447;-75
2021/12/12 23:16:34;;;;;;;22.13;20.13;;;;;;;2.83;100.00;100825.06;10547218;28;20406;-74
2021/12/12 23:22:02;;;;;;;18.42;16.75;;;;;;;2.98;100.00;100826.13;10529094;28;20056;-74
2021/12/12 23:27:13;;;;;;;17.63;15.95;;;;;;;3.07;100.00;100822.75;10535978;28;20460;-74
2021/12/12 23:32:33;;;;;;;19.10;17.30;;;;;;;3.12;100.00;100820.22;10549229;28;20044;-75
2021/12/12 23:37:42;;;;;;;16.83;15.32;;;;;;;3.05;100.00;100819.25;10553078;28;20043;-74
2021/12/12 23:43:03;;;;;;;15.30;13.77;;;;;;;3.14;100.00;100813.28;10552421;28;20436;-74
2021/12/12 23:48:10;;;;;;;9.77;8.98;;;;;;;3.13;100.00;100809.84;10551790;28;20040;-74
2021/12/12 23:53:19;;;;;;;6.18;5.68;;;;;;;3.23;100.00;100813.41;10552077;28;20044;-75
2021/12/12 23:58:33;;;;;;;4.15;3.85;;;;;;;3.40;100.00;100814.44;10552644;28;20044;-74
